sensor_id;sensor_type;location;lat;lon;timestamp;temperature;humidity
16825;DHT22;8529;48.108;-1.706;2023-11-21T00:00:23;12.20;99.90
16825;DHT22;8529;48.108;-1.706;2023-11-21T00:02:52;11.90;99.90
16825;DHT22;8529;48.108;-1.706;2023-11-21T00:05:19;11.90;99.90
16825;DHT22;8529;48.108;-1.706;2023-11-21T00:07:48;11.90;99.90
16825;DHT22;8529;48.108;-1.706;2023-11-21T00:10:17;11.90;99.90
16825;DHT22;8529;48.108;-1.706;2023-11-21T00:12:44;11.90;99.90
16825;DHT22;8529;48.108;-1.706;2023-11-21T00:15:13;11.90;99.90
16825;DHT22;8529;48.108;-1.706;2023-11-21T00:17:40;11.90;99.90
16825;DHT22;8529;48.108;-1.706;2023-11-21T00:20:10;11.90;99.90
16825;DHT22;8529;48.108;-1.706;2023-11-21T00:22:38;11.90;99.90
16825;DHT22;8529;48.108;-1.706;2023-11-21T00:25:06;11.90;99.90
16825;DHT22;8529;48.108;-1.706;2023-11-21T00:27:34;11.90;99.90
16825;DHT22;8529;48.108;-1.706;2023-11-21T00:30:01;11.90;99.90
16825;DHT22;8529;48.108;-1.706;2023-11-21T00:32:29;11.90;99.90
16825;DHT22;8529;48.108;-1.706;2023-11-21T00:34:56;11.90;99.90
16825;DHT22;8529;48.108;-1.706;2023-11-21T00:37:26;11.90;99.90
16825;DHT22;8529;48.108;-1.706;2023-11-21T00:39:53;11.90;99.90
16825;DHT22;8529;48.108;-1.706;2023-11-21T00:42:20;11.80;99.90
16825;DHT22;8529;48.108;-1.706;2023-11-21T00:44:48;11.80;99.90
16825;DHT22;8529;48.108;-1.706;2023-11-21T00:47:15;11.70;99.90
16825;DHT22;8529;48.108;-1.706;2023-11-21T00:49:42;11.80;99.90
16825;DHT22;8529;48.108;-1.706;2023-11-21T00:52:09;11.80;99.90
16825;DHT22;8529;48.108;-1.706;2023-11-21T00:54:37;11.80;99.90
16825;DHT22;8529;48.108;-1.706;2023-11-21T00:57:05;11.70;99.90
16825;DHT22;8529;48.108;-1.706;2023-11-21T00:59:34;11.70;99.90
16825;DHT22;8529;48.108;-1.706;2023-11-21T01:02:01;11.80;99.90
16825;DHT22;8529;48.108;-1.706;2023-11-21T01:04:27;11.70;99.90
16825;DHT22;8529;48.108;-1.706;2023-11-21T01:06:54;11.70;99.90
16825;DHT22;8529;48.108;-1.706;2023-11-21T01:09:21;11.70;99.90
16825;DHT22;8529;48.108;-1.706;2023-11-21T01:16:44;11.70;99.90
16825;DHT22;8529;48.108;-1.706;2023-11-21T01:21:38;11.70;99.90
16825;DHT22;8529;48.108;-1.706;2023-11-21T01:29:01;11.70;99.90
16825;DHT22;8529;48.108;-1.706;2023-11-21T01:31:28;11.70;99.90
16825;DHT22;8529;48.108;-1.706;2023-11-21T01:41:17;11.70;99.90
16825;DHT22;8529;48.108;-1.706;2023-11-21T01:48:41;11.70;99.90
16825;DHT22;8529;48.108;-1.706;2023-11-21T01:51:07;11.70;99.90
16825;DHT22;8529;48.108;-1.706;2023-11-21T01:53:34;11.70;99.90
16825;DHT22;8529;48.108;-1.706;2023-11-21T01:56:02;11.70;99.90
16825;DHT22;8529;48.108;-1.706;2023-11-21T01:58:30;11.70;99.90
16825;DHT22;8529;48.108;-1.706;2023-11-21T02:00:57;11.70;99.90
16825;DHT22;8529;48.108;-1.706;2023-11-21T02:03:26;11.70;99.90
16825;DHT22;8529;48.108;-1.706;2023-11-21T02:08:20;11.70;99.90
16825;DHT22;8529;48.108;-1.706;2023-11-21T02:10:47;11.70;99.90
16825;DHT22;8529;48.108;-1.706;2023-11-21T02:13:14;11.70;99.90
16825;DHT22;8529;48.108;-1.706;2023-11-21T02:15:42;11.70;99.90
16825;DHT22;8529;48.108;-1.706;2023-11-21T02:18:09;11.70;99.90
16825;DHT22;8529;48.108;-1.706;2023-11-21T02:28:04;11.60;99.90
16825;DHT22;8529;48.108;-1.706;2023-11-21T02:30:32;11.70;99.90
16825;DHT22;8529;48.108;-1.706;2023-11-21T02:32:59;11.70;99.90
16825;DHT22;8529;48.108;-1.706;2023-11-21T02:35:26;11.60;99.90
16825;DHT22;8529;48.108;-1.706;2023-11-21T02:37:53;11.60;99.90
16825;DHT22;8529;48.108;-1.706;2023-11-21T02:40:22;11.60;99.90
16825;DHT22;8529;48.108;-1.706;2023-11-21T02:42:50;12.00;99.90
16825;DHT22;8529;48.108;-1.706;2023-11-21T02:45:18;11.60;99.90
16825;DHT22;8529;48.108;-1.706;2023-11-21T02:47:46;11.60;99.90
16825;DHT22;8529;48.108;-1.706;2023-11-21T02:50:14;11.60;99.90
16825;DHT22;8529;48.108;-1.706;2023-11-21T02:52:41;11.40;99.90
16825;DHT22;8529;48.108;-1.706;2023-11-21T02:55:09;11.60;99.90
16825;DHT22;8529;48.108;-1.706;2023-11-21T03:00:06;11.60;99.90
16825;DHT22;8529;48.108;-1.706;2023-11-21T03:05:05;11.60;99.90
16825;DHT22;8529;48.108;-1.706;2023-11-21T03:07:31;11.50;99.90
16825;DHT22;8529;48.108;-1.706;2023-11-21T03:09:58;11.50;99.90
16825;DHT22;8529;48.108;-1.706;2023-11-21T03:12:25;11.50;99.90
16825;DHT22;8529;48.108;-1.706;2023-11-21T03:14:53;11.50;99.90
16825;DHT22;8529;48.108;-1.706;2023-11-21T03:17:20;11.50;99.90
16825;DHT22;8529;48.108;-1.706;2023-11-21T03:19:47;11.50;99.90
16825;DHT22;8529;48.108;-1.706;2023-11-21T03:22:14;11.50;99.90
16825;DHT22;8529;48.108;-1.706;2023-11-21T03:24:41;11.50;99.90
16825;DHT22;8529;48.108;-1.706;2023-11-21T03:29:35;11.50;99.90
16825;DHT22;8529;48.108;-1.706;2023-11-21T03:34:30;11.50;99.90
16825;DHT22;8529;48.108;-1.706;2023-11-21T03:36:57;11.50;99.90
16825;DHT22;8529;48.108;-1.706;2023-11-21T03:39:24;10.60;99.90
16825;DHT22;8529;48.108;-1.706;2023-11-21T03:41:51;11.50;99.90
16825;DHT22;8529;48.108;-1.706;2023-11-21T03:44:18;11.50;99.90
16825;DHT22;8529;48.108;-1.706;2023-11-21T03:46:45;11.40;99.90
16825;DHT22;8529;48.108;-1.706;2023-11-21T03:49:13;11.50;99.90
16825;DHT22;8529;48.108;-1.706;2023-11-21T03:51:40;11.50;99.90
16825;DHT22;8529;48.108;-1.706;2023-11-21T03:54:07;11.50;99.90
16825;DHT22;8529;48.108;-1.706;2023-11-21T03:56:33;11.50;99.90
16825;DHT22;8529;48.108;-1.706;2023-11-21T03:59:00;11.50;99.90
16825;DHT22;8529;48.108;-1.706;2023-11-21T04:03:54;11.50;99.90
16825;DHT22;8529;48.108;-1.706;2023-11-21T04:06:24;11.50;99.90
16825;DHT22;8529;48.108;-1.706;2023-11-21T04:13:45;11.40;99.90
16825;DHT22;8529;48.108;-1.706;2023-11-21T04:16:12;11.40;99.90
16825;DHT22;8529;48.108;-1.706;2023-11-21T04:18:39;11.40;99.90
16825;DHT22;8529;48.108;-1.706;2023-11-21T04:21:06;11.40;99.90
16825;DHT22;8529;48.108;-1.706;2023-11-21T04:23:36;11.40;99.90
16825;DHT22;8529;48.108;-1.706;2023-11-21T04:26:03;11.40;99.90
16825;DHT22;8529;48.108;-1.706;2023-11-21T04:28:29;11.40;99.90
16825;DHT22;8529;48.108;-1.706;2023-11-21T04:30:56;11.40;99.90
16825;DHT22;8529;48.108;-1.706;2023-11-21T04:33:23;11.30;99.90
16825;DHT22;8529;48.108;-1.706;2023-11-21T04:35:51;11.30;99.90
16825;DHT22;8529;48.108;-1.706;2023-11-21T04:38:18;11.20;99.90
16825;DHT22;8529;48.108;-1.706;2023-11-21T04:40:46;11.10;99.90
16825;DHT22;8529;48.108;-1.706;2023-11-21T04:43:13;11.10;99.90
16825;DHT22;8529;48.108;-1.706;2023-11-21T04:45:40;11.00;99.90
16825;DHT22;8529;48.108;-1.706;2023-11-21T04:48:07;11.00;99.90
16825;DHT22;8529;48.108;-1.706;2023-11-21T04:50:34;11.00;99.90
16825;DHT22;8529;48.108;-1.706;2023-11-21T04:53:01;11.00;99.90
16825;DHT22;8529;48.108;-1.706;2023-11-21T04:55:27;11.00;99.90
16825;DHT22;8529;48.108;-1.706;2023-11-21T04:57:56;11.00;99.90
16825;DHT22;8529;48.108;-1.706;2023-11-21T05:00:22;11.00;99.90
16825;DHT22;8529;48.108;-1.706;2023-11-21T05:02:49;11.10;99.90
16825;DHT22;8529;48.108;-1.706;2023-11-21T05:05:17;11.40;99.90
16825;DHT22;8529;48.108;-1.706;2023-11-21T05:07:44;11.10;99.90
16825;DHT22;8529;48.108;-1.706;2023-11-21T05:10:11;11.10;99.90
16825;DHT22;8529;48.108;-1.706;2023-11-21T05:12:40;11.10;99.90
16825;DHT22;8529;48.108;-1.706;2023-11-21T05:15:10;11.10;99.90
16825;DHT22;8529;48.108;-1.706;2023-11-21T05:17:40;11.10;99.90
16825;DHT22;8529;48.108;-1.706;2023-11-21T05:20:09;11.10;99.90
16825;DHT22;8529;48.108;-1.706;2023-11-21T05:22:36;11.10;99.90
16825;DHT22;8529;48.108;-1.706;2023-11-21T05:25:04;11.00;99.90
16825;DHT22;8529;48.108;-1.706;2023-11-21T05:27:33;11.00;99.90
16825;DHT22;8529;48.108;-1.706;2023-11-21T05:30:01;11.00;99.90
16825;DHT22;8529;48.108;-1.706;2023-11-21T05:32:32;11.00;99.90
16825;DHT22;8529;48.108;-1.706;2023-11-21T05:34:59;11.00;99.90
16825;DHT22;8529;48.108;-1.706;2023-11-21T05:37:26;11.00;99.90
16825;DHT22;8529;48.108;-1.706;2023-11-21T05:39:54;11.00;99.90
16825;DHT22;8529;48.108;-1.706;2023-11-21T05:42:22;11.00;99.90
16825;DHT22;8529;48.108;-1.706;2023-11-21T05:44:48;11.00;99.90
16825;DHT22;8529;48.108;-1.706;2023-11-21T05:47:15;11.00;99.90
16825;DHT22;8529;48.108;-1.706;2023-11-21T05:49:44;11.10;99.90
16825;DHT22;8529;48.108;-1.706;2023-11-21T05:52:15;11.10;99.90
16825;DHT22;8529;48.108;-1.706;2023-11-21T05:54:42;11.10;99.90
16825;DHT22;8529;48.108;-1.706;2023-11-21T05:57:09;11.10;99.90
16825;DHT22;8529;48.108;-1.706;2023-11-21T05:59:36;11.10;99.90
16825;DHT22;8529;48.108;-1.706;2023-11-21T06:02:03;11.10;99.90
16825;DHT22;8529;48.108;-1.706;2023-11-21T06:04:30;11.10;99.90
16825;DHT22;8529;48.108;-1.706;2023-11-21T06:06:58;11.10;99.90
16825;DHT22;8529;48.108;-1.706;2023-11-21T06:09:26;11.00;99.90
16825;DHT22;8529;48.108;-1.706;2023-11-21T06:11:53;11.00;99.90
16825;DHT22;8529;48.108;-1.706;2023-11-21T06:14:20;11.00;99.90
16825;DHT22;8529;48.108;-1.706;2023-11-21T06:16:47;11.00;99.90
16825;DHT22;8529;48.108;-1.706;2023-11-21T06:19:16;11.00;99.90
16825;DHT22;8529;48.108;-1.706;2023-11-21T06:21:45;11.00;99.90
16825;DHT22;8529;48.108;-1.706;2023-11-21T06:24:13;10.90;99.90
16825;DHT22;8529;48.108;-1.706;2023-11-21T06:26:41;10.80;99.90
16825;DHT22;8529;48.108;-1.706;2023-11-21T06:29:09;10.80;99.90
16825;DHT22;8529;48.108;-1.706;2023-11-21T06:31:36;10.90;99.90
16825;DHT22;8529;48.108;-1.706;2023-11-21T06:34:03;11.00;99.90
16825;DHT22;8529;48.108;-1.706;2023-11-21T06:36:30;11.10;99.90
16825;DHT22;8529;48.108;-1.706;2023-11-21T06:38:57;11.10;99.90
16825;DHT22;8529;48.108;-1.706;2023-11-21T06:41:25;11.10;99.90
16825;DHT22;8529;48.108;-1.706;2023-11-21T06:43:52;11.10;99.90
16825;DHT22;8529;48.108;-1.706;2023-11-21T06:46:19;11.20;99.90
16825;DHT22;8529;48.108;-1.706;2023-11-21T06:48:45;11.20;99.90
16825;DHT22;8529;48.108;-1.706;2023-11-21T06:51:14;11.20;99.90
16825;DHT22;8529;48.108;-1.706;2023-11-21T06:53:40;11.20;99.90
16825;DHT22;8529;48.108;-1.706;2023-11-21T06:56:15;11.10;99.90
16825;DHT22;8529;48.108;-1.706;2023-11-21T06:58:44;10.90;99.90
16825;DHT22;8529;48.108;-1.706;2023-11-21T07:01:12;10.80;99.90
16825;DHT22;8529;48.108;-1.706;2023-11-21T07:03:39;10.70;99.90
16825;DHT22;8529;48.108;-1.706;2023-11-21T07:06:07;10.70;99.90
16825;DHT22;8529;48.108;-1.706;2023-11-21T07:08:34;10.60;99.90
16825;DHT22;8529;48.108;-1.706;2023-11-21T07:11:01;10.60;99.90
16825;DHT22;8529;48.108;-1.706;2023-11-21T07:13:28;10.60;99.90
16825;DHT22;8529;48.108;-1.706;2023-11-21T07:15:57;10.60;99.90
16825;DHT22;8529;48.108;-1.706;2023-11-21T07:18:24;11.30;99.90
16825;DHT22;8529;48.108;-1.706;2023-11-21T07:20:51;10.80;99.90
16825;DHT22;8529;48.108;-1.706;2023-11-21T07:23:18;10.80;99.90
16825;DHT22;8529;48.108;-1.706;2023-11-21T07:25:45;10.80;99.90
16825;DHT22;8529;48.108;-1.706;2023-11-21T07:28:12;10.90;99.90
16825;DHT22;8529;48.108;-1.706;2023-11-21T07:30:39;10.90;99.90
16825;DHT22;8529;48.108;-1.706;2023-11-21T07:33:07;10.90;99.90
16825;DHT22;8529;48.108;-1.706;2023-11-21T07:35:34;10.90;99.90
16825;DHT22;8529;48.108;-1.706;2023-11-21T07:38:01;10.90;99.90
16825;DHT22;8529;48.108;-1.706;2023-11-21T07:40:29;11.00;99.90
16825;DHT22;8529;48.108;-1.706;2023-11-21T07:42:56;11.00;99.90
16825;DHT22;8529;48.108;-1.706;2023-11-21T07:45:23;11.00;99.90
16825;DHT22;8529;48.108;-1.706;2023-11-21T07:47:49;11.10;99.90
16825;DHT22;8529;48.108;-1.706;2023-11-21T07:50:18;11.10;99.90
16825;DHT22;8529;48.108;-1.706;2023-11-21T07:52:45;11.10;99.90
16825;DHT22;8529;48.108;-1.706;2023-11-21T07:55:12;12.30;99.90
16825;DHT22;8529;48.108;-1.706;2023-11-21T07:57:39;11.10;99.90
16825;DHT22;8529;48.108;-1.706;2023-11-21T08:00:07;11.20;99.90
16825;DHT22;8529;48.108;-1.706;2023-11-21T08:02:37;11.20;99.90
16825;DHT22;8529;48.108;-1.706;2023-11-21T08:05:05;11.10;99.90
16825;DHT22;8529;48.108;-1.706;2023-11-21T08:07:34;11.10;99.90
16825;DHT22;8529;48.108;-1.706;2023-11-21T08:10:01;11.00;99.90
16825;DHT22;8529;48.108;-1.706;2023-11-21T08:12:28;10.90;99.90
16825;DHT22;8529;48.108;-1.706;2023-11-21T08:14:55;10.90;99.90
16825;DHT22;8529;48.108;-1.706;2023-11-21T08:17:22;10.90;99.90
16825;DHT22;8529;48.108;-1.706;2023-11-21T08:19:49;10.90;99.90
16825;DHT22;8529;48.108;-1.706;2023-11-21T08:22:16;10.90;99.90
16825;DHT22;8529;48.108;-1.706;2023-11-21T08:24:45;10.80;99.90
16825;DHT22;8529;48.108;-1.706;2023-11-21T08:27:12;10.80;99.90
16825;DHT22;8529;48.108;-1.706;2023-11-21T08:29:41;10.80;99.90
16825;DHT22;8529;48.108;-1.706;2023-11-21T08:32:07;10.80;99.90
16825;DHT22;8529;48.108;-1.706;2023-11-21T08:34:35;10.80;99.90
16825;DHT22;8529;48.108;-1.706;2023-11-21T08:37:02;10.80;99.90
16825;DHT22;8529;48.108;-1.706;2023-11-21T08:39:29;10.80;99.90
16825;DHT22;8529;48.108;-1.706;2023-11-21T08:41:57;10.80;99.90
16825;DHT22;8529;48.108;-1.706;2023-11-21T08:44:24;10.80;99.90
16825;DHT22;8529;48.108;-1.706;2023-11-21T08:46:51;10.90;99.90
16825;DHT22;8529;48.108;-1.706;2023-11-21T08:49:18;10.90;99.90
16825;DHT22;8529;48.108;-1.706;2023-11-21T08:51:44;10.90;99.90
16825;DHT22;8529;48.108;-1.706;2023-11-21T08:54:12;10.90;99.90
16825;DHT22;8529;48.108;-1.706;2023-11-21T08:56:38;10.90;99.90
16825;DHT22;8529;48.108;-1.706;2023-11-21T08:59:07;10.90;99.90
16825;DHT22;8529;48.108;-1.706;2023-11-21T09:01:34;10.90;99.90
16825;DHT22;8529;48.108;-1.706;2023-11-21T09:04:00;10.80;99.90
16825;DHT22;8529;48.108;-1.706;2023-11-21T09:06:28;10.90;99.90
16825;DHT22;8529;48.108;-1.706;2023-11-21T09:08:54;10.90;99.90
16825;DHT22;8529;48.108;-1.706;2023-11-21T09:11:21;11.00;99.90
16825;DHT22;8529;48.108;-1.706;2023-11-21T09:16:20;11.10;99.90
16825;DHT22;8529;48.108;-1.706;2023-11-21T09:18:46;11.20;99.90
16825;DHT22;8529;48.108;-1.706;2023-11-21T09:21:13;11.30;99.90
16825;DHT22;8529;48.108;-1.706;2023-11-21T09:23:40;11.40;99.90
16825;DHT22;8529;48.108;-1.706;2023-11-21T09:26:07;11.50;99.90
16825;DHT22;8529;48.108;-1.706;2023-11-21T09:28:34;11.60;99.90
16825;DHT22;8529;48.108;-1.706;2023-11-21T09:31:03;11.70;99.90
16825;DHT22;8529;48.108;-1.706;2023-11-21T09:33:31;12.50;99.90
16825;DHT22;8529;48.108;-1.706;2023-11-21T09:35:59;12.00;99.90
16825;DHT22;8529;48.108;-1.706;2023-11-21T09:38:26;11.80;99.90
16825;DHT22;8529;48.108;-1.706;2023-11-21T09:40:54;11.80;99.90
16825;DHT22;8529;48.108;-1.706;2023-11-21T09:43:25;11.80;99.90
16825;DHT22;8529;48.108;-1.706;2023-11-21T09:45:59;11.80;99.90
16825;DHT22;8529;48.108;-1.706;2023-11-21T09:48:26;11.90;99.90
16825;DHT22;8529;48.108;-1.706;2023-11-21T09:53:22;12.00;99.90
16825;DHT22;8529;48.108;-1.706;2023-11-21T09:55:51;12.00;99.90
16825;DHT22;8529;48.108;-1.706;2023-11-21T09:58:19;12.00;99.90
16825;DHT22;8529;48.108;-1.706;2023-11-21T10:00:50;11.90;99.90
16825;DHT22;8529;48.108;-1.706;2023-11-21T10:03:19;11.90;99.90
16825;DHT22;8529;48.108;-1.706;2023-11-21T10:05:48;11.90;99.90
16825;DHT22;8529;48.108;-1.706;2023-11-21T10:08:19;12.10;99.90
16825;DHT22;8529;48.108;-1.706;2023-11-21T10:10:49;12.20;99.90
16825;DHT22;8529;48.108;-1.706;2023-11-21T10:13:18;12.20;99.90
16825;DHT22;8529;48.108;-1.706;2023-11-21T10:15:49;12.30;99.90
16825;DHT22;8529;48.108;-1.706;2023-11-21T10:18:17;12.30;99.90
16825;DHT22;8529;48.108;-1.706;2023-11-21T10:20:45;12.40;99.90
16825;DHT22;8529;48.108;-1.706;2023-11-21T10:23:19;12.40;99.90
16825;DHT22;8529;48.108;-1.706;2023-11-21T10:25:47;12.50;99.90
16825;DHT22;8529;48.108;-1.706;2023-11-21T10:28:14;12.50;99.90
16825;DHT22;8529;48.108;-1.706;2023-11-21T10:30:41;12.50;99.90
16825;DHT22;8529;48.108;-1.706;2023-11-21T10:33:09;12.50;99.90
16825;DHT22;8529;48.108;-1.706;2023-11-21T10:35:42;12.50;99.90
16825;DHT22;8529;48.108;-1.706;2023-11-21T10:38:12;12.50;99.90
16825;DHT22;8529;48.108;-1.706;2023-11-21T10:40:41;12.40;99.90
16825;DHT22;8529;48.108;-1.706;2023-11-21T10:43:09;12.40;99.90
16825;DHT22;8529;48.108;-1.706;2023-11-21T10:45:36;12.50;99.90
16825;DHT22;8529;48.108;-1.706;2023-11-21T10:50:34;12.40;99.90
16825;DHT22;8529;48.108;-1.706;2023-11-21T10:53:02;12.40;99.90
16825;DHT22;8529;48.108;-1.706;2023-11-21T10:55:30;12.40;99.90
16825;DHT22;8529;48.108;-1.706;2023-11-21T10:58:00;12.30;99.90
16825;DHT22;8529;48.108;-1.706;2023-11-21T11:05:25;12.40;99.90
16825;DHT22;8529;48.108;-1.706;2023-11-21T11:08:01;12.30;99.90
16825;DHT22;8529;48.108;-1.706;2023-11-21T11:10:30;12.30;99.90
16825;DHT22;8529;48.108;-1.706;2023-11-21T11:17:54;12.40;99.90
16825;DHT22;8529;48.108;-1.706;2023-11-21T11:22:59;12.40;99.90
16825;DHT22;8529;48.108;-1.706;2023-11-21T11:25:38;12.40;99.90
16825;DHT22;8529;48.108;-1.706;2023-11-21T11:28:15;12.50;99.90
16825;DHT22;8529;48.108;-1.706;2023-11-21T11:30:55;12.50;99.90
16825;DHT22;8529;48.108;-1.706;2023-11-21T11:33:34;12.50;99.90
16825;DHT22;8529;48.108;-1.706;2023-11-21T11:36:05;12.50;99.90
16825;DHT22;8529;48.108;-1.706;2023-11-21T11:38:34;12.50;99.90
16825;DHT22;8529;48.108;-1.706;2023-11-21T11:41:03;12.50;99.90
16825;DHT22;8529;48.108;-1.706;2023-11-21T11:43:32;12.60;99.90
16825;DHT22;8529;48.108;-1.706;2023-11-21T11:46:05;12.60;99.90
16825;DHT22;8529;48.108;-1.706;2023-11-21T11:48:35;12.60;99.90
16825;DHT22;8529;48.108;-1.706;2023-11-21T11:51:05;12.60;99.90
16825;DHT22;8529;48.108;-1.706;2023-11-21T11:53:39;12.70;99.90
16825;DHT22;8529;48.108;-1.706;2023-11-21T11:56:24;12.70;99.90
16825;DHT22;8529;48.108;-1.706;2023-11-21T11:58:54;12.70;99.90
16825;DHT22;8529;48.108;-1.706;2023-11-21T12:01:21;12.70;99.90
16825;DHT22;8529;48.108;-1.706;2023-11-21T12:04:23;12.80;99.90
16825;DHT22;8529;48.108;-1.706;2023-11-21T12:06:55;12.80;99.90
16825;DHT22;8529;48.108;-1.706;2023-11-21T12:09:24;12.80;99.90
16825;DHT22;8529;48.108;-1.706;2023-11-21T12:11:52;12.70;99.90
16825;DHT22;8529;48.108;-1.706;2023-11-21T12:14:21;12.70;99.90
16825;DHT22;8529;48.108;-1.706;2023-11-21T12:16:49;12.80;99.90
16825;DHT22;8529;48.108;-1.706;2023-11-21T12:19:17;12.80;99.90
16825;DHT22;8529;48.108;-1.706;2023-11-21T12:21:44;12.80;99.90
16825;DHT22;8529;48.108;-1.706;2023-11-21T12:24:11;12.80;99.90
16825;DHT22;8529;48.108;-1.706;2023-11-21T12:26:39;12.80;99.90
16825;DHT22;8529;48.108;-1.706;2023-11-21T12:29:06;12.80;99.90
16825;DHT22;8529;48.108;-1.706;2023-11-21T12:31:35;12.80;99.90
16825;DHT22;8529;48.108;-1.706;2023-11-21T12:34:03;12.90;99.90
16825;DHT22;8529;48.108;-1.706;2023-11-21T12:41:26;12.90;99.90
16825;DHT22;8529;48.108;-1.706;2023-11-21T12:43:52;12.80;99.90
16825;DHT22;8529;48.108;-1.706;2023-11-21T12:46:19;12.80;99.90
16825;DHT22;8529;48.108;-1.706;2023-11-21T12:48:48;12.80;99.90
16825;DHT22;8529;48.108;-1.706;2023-11-21T12:51:15;12.80;99.90
16825;DHT22;8529;48.108;-1.706;2023-11-21T12:53:44;12.80;99.90
16825;DHT22;8529;48.108;-1.706;2023-11-21T12:56:13;12.80;99.90
16825;DHT22;8529;48.108;-1.706;2023-11-21T12:58:45;12.80;99.90
16825;DHT22;8529;48.108;-1.706;2023-11-21T13:01:13;12.80;99.90
16825;DHT22;8529;48.108;-1.706;2023-11-21T13:03:48;12.80;99.90
16825;DHT22;8529;48.108;-1.706;2023-11-21T13:06:17;12.80;99.90
16825;DHT22;8529;48.108;-1.706;2023-11-21T13:08:45;12.80;99.90
16825;DHT22;8529;48.108;-1.706;2023-11-21T13:11:12;12.80;99.90
16825;DHT22;8529;48.108;-1.706;2023-11-21T13:13:41;12.80;99.90
16825;DHT22;8529;48.108;-1.706;2023-11-21T13:16:09;12.80;99.90
16825;DHT22;8529;48.108;-1.706;2023-11-21T13:18:36;12.80;99.90
16825;DHT22;8529;48.108;-1.706;2023-11-21T13:21:08;12.80;99.90
16825;DHT22;8529;48.108;-1.706;2023-11-21T13:23:39;12.80;99.90
16825;DHT22;8529;48.108;-1.706;2023-11-21T13:26:07;12.80;99.90
16825;DHT22;8529;48.108;-1.706;2023-11-21T13:28:35;12.70;99.90
16825;DHT22;8529;48.108;-1.706;2023-11-21T13:31:04;12.70;99.90
16825;DHT22;8529;48.108;-1.706;2023-11-21T13:33:35;12.70;99.90
16825;DHT22;8529;48.108;-1.706;2023-11-21T13:36:04;12.70;99.90
16825;DHT22;8529;48.108;-1.706;2023-11-21T13:38:34;12.60;99.90
16825;DHT22;8529;48.108;-1.706;2023-11-21T13:41:03;12.60;99.90
16825;DHT22;8529;48.108;-1.706;2023-11-21T13:43:33;12.60;99.90
16825;DHT22;8529;48.108;-1.706;2023-11-21T13:46:00;12.60;99.90
16825;DHT22;8529;48.108;-1.706;2023-11-21T13:48:34;12.60;99.90
16825;DHT22;8529;48.108;-1.706;2023-11-21T13:51:07;12.50;99.90
16825;DHT22;8529;48.108;-1.706;2023-11-21T13:53:42;12.40;99.90
16825;DHT22;8529;48.108;-1.706;2023-11-21T13:56:10;12.40;99.90
16825;DHT22;8529;48.108;-1.706;2023-11-21T13:58:38;12.40;99.90
16825;DHT22;8529;48.108;-1.706;2023-11-21T14:01:12;12.40;99.90
16825;DHT22;8529;48.108;-1.706;2023-11-21T14:03:58;12.40;99.90
16825;DHT22;8529;48.108;-1.706;2023-11-21T14:06:34;12.50;99.90
16825;DHT22;8529;48.108;-1.706;2023-11-21T14:09:12;12.50;99.90
16825;DHT22;8529;48.108;-1.706;2023-11-21T14:11:50;12.50;99.90
16825;DHT22;8529;48.108;-1.706;2023-11-21T14:14:19;12.50;99.90
16825;DHT22;8529;48.108;-1.706;2023-11-21T14:16:46;12.50;99.90
16825;DHT22;8529;48.108;-1.706;2023-11-21T14:19:13;12.50;99.90
16825;DHT22;8529;48.108;-1.706;2023-11-21T14:21:43;12.50;99.90
16825;DHT22;8529;48.108;-1.706;2023-11-21T14:24:12;12.50;99.90
16825;DHT22;8529;48.108;-1.706;2023-11-21T14:26:40;12.50;99.90
16825;DHT22;8529;48.108;-1.706;2023-11-21T14:29:07;12.50;99.90
16825;DHT22;8529;48.108;-1.706;2023-11-21T14:31:35;12.50;99.90
16825;DHT22;8529;48.108;-1.706;2023-11-21T14:34:02;12.50;99.90
16825;DHT22;8529;48.108;-1.706;2023-11-21T14:36:30;12.50;99.90
16825;DHT22;8529;48.108;-1.706;2023-11-21T14:38:57;12.50;99.90
16825;DHT22;8529;48.108;-1.706;2023-11-21T14:41:25;12.50;99.90
16825;DHT22;8529;48.108;-1.706;2023-11-21T14:43:53;12.40;99.90
16825;DHT22;8529;48.108;-1.706;2023-11-21T14:46:20;12.40;99.90
16825;DHT22;8529;48.108;-1.706;2023-11-21T14:48:47;12.40;99.90
16825;DHT22;8529;48.108;-1.706;2023-11-21T14:51:24;12.40;99.90
16825;DHT22;8529;48.108;-1.706;2023-11-21T14:53:56;12.40;99.90
16825;DHT22;8529;48.108;-1.706;2023-11-21T14:56:27;12.40;99.90
16825;DHT22;8529;48.108;-1.706;2023-11-21T14:58:57;12.40;99.90
16825;DHT22;8529;48.108;-1.706;2023-11-21T15:01:23;12.30;99.90
16825;DHT22;8529;48.108;-1.706;2023-11-21T15:04:08;12.30;99.90
16825;DHT22;8529;48.108;-1.706;2023-11-21T15:06:40;12.30;99.90
16825;DHT22;8529;48.108;-1.706;2023-11-21T15:09:08;12.30;99.90
16825;DHT22;8529;48.108;-1.706;2023-11-21T15:12:02;12.30;99.90
16825;DHT22;8529;48.108;-1.706;2023-11-21T15:14:42;12.30;99.90
16825;DHT22;8529;48.108;-1.706;2023-11-21T15:17:11;12.30;99.90
16825;DHT22;8529;48.108;-1.706;2023-11-21T15:19:41;12.30;99.90
16825;DHT22;8529;48.108;-1.706;2023-11-21T15:22:09;12.30;99.90
16825;DHT22;8529;48.108;-1.706;2023-11-21T15:24:38;12.40;99.90
16825;DHT22;8529;48.108;-1.706;2023-11-21T15:27:08;12.50;99.90
16825;DHT22;8529;48.108;-1.706;2023-11-21T15:29:36;12.50;99.90
16825;DHT22;8529;48.108;-1.706;2023-11-21T15:32:05;12.50;99.90
16825;DHT22;8529;48.108;-1.706;2023-11-21T15:34:32;12.60;99.90
16825;DHT22;8529;48.108;-1.706;2023-11-21T15:36:59;12.50;99.90
16825;DHT22;8529;48.108;-1.706;2023-11-21T15:39:27;12.60;99.90
16825;DHT22;8529;48.108;-1.706;2023-11-21T15:41:56;12.50;99.90
16825;DHT22;8529;48.108;-1.706;2023-11-21T15:44:24;12.60;99.90
16825;DHT22;8529;48.108;-1.706;2023-11-21T15:46:52;12.60;99.90
16825;DHT22;8529;48.108;-1.706;2023-11-21T15:49:19;12.60;99.90
16825;DHT22;8529;48.108;-1.706;2023-11-21T15:51:48;12.60;99.90
16825;DHT22;8529;48.108;-1.706;2023-11-21T15:54:18;12.50;99.90
16825;DHT22;8529;48.108;-1.706;2023-11-21T15:56:45;12.40;99.90
16825;DHT22;8529;48.108;-1.706;2023-11-21T15:59:12;12.40;99.90
16825;DHT22;8529;48.108;-1.706;2023-11-21T16:01:41;12.30;99.90
16825;DHT22;8529;48.108;-1.706;2023-11-21T16:04:10;12.20;99.90
16825;DHT22;8529;48.108;-1.706;2023-11-21T16:06:41;12.20;99.90
16825;DHT22;8529;48.108;-1.706;2023-11-21T16:09:08;12.10;99.90
16825;DHT22;8529;48.108;-1.706;2023-11-21T16:11:43;12.10;99.90
16825;DHT22;8529;48.108;-1.706;2023-11-21T16:14:10;12.10;99.90
16825;DHT22;8529;48.108;-1.706;2023-11-21T16:16:37;12.10;99.90
16825;DHT22;8529;48.108;-1.706;2023-11-21T16:19:06;12.00;99.90
16825;DHT22;8529;48.108;-1.706;2023-11-21T16:21:33;12.00;99.90
16825;DHT22;8529;48.108;-1.706;2023-11-21T16:24:00;12.40;99.90
16825;DHT22;8529;48.108;-1.706;2023-11-21T16:26:28;12.00;99.90
16825;DHT22;8529;48.108;-1.706;2023-11-21T16:28:56;11.70;99.90
16825;DHT22;8529;48.108;-1.706;2023-11-21T16:31:23;11.90;99.90
16825;DHT22;8529;48.108;-1.706;2023-11-21T16:36:18;11.90;99.90
16825;DHT22;8529;48.108;-1.706;2023-11-21T16:43:39;11.80;99.90
16825;DHT22;8529;48.108;-1.706;2023-11-21T16:46:06;11.80;99.90
16825;DHT22;8529;48.108;-1.706;2023-11-21T16:48:37;11.80;99.90
16825;DHT22;8529;48.108;-1.706;2023-11-21T16:51:04;11.80;99.90
16825;DHT22;8529;48.108;-1.706;2023-11-21T16:53:32;11.70;99.90
16825;DHT22;8529;48.108;-1.706;2023-11-21T16:55:59;11.70;99.90
16825;DHT22;8529;48.108;-1.706;2023-11-21T16:58:26;11.70;99.90
16825;DHT22;8529;48.108;-1.706;2023-11-21T17:00:54;11.70;99.90